sensor_id;sensor_type;location;lat;lon;timestamp;pressure;altitude;pressure_sealevel;temperature;humidity
61880;BME280;47817;52.798;27.544;2023-01-31T00:01:18;1005.7;;;2.3;89.5
61880;BME280;47817;52.798;27.544;2023-01-31T00:06:29;1005.7;;;2.3;89.6
61880;BME280;47817;52.798;27.544;2023-01-31T00:11:07;1005.7;;;2.3;89.7
61880;BME280;47817;52.798;27.544;2023-01-31T00:16:29;1005.7;;;2.4;89.7
61880;BME280;47817;52.798;27.544;2023-01-31T00:21:53;1005.8;;;2.4;89.6
61880;BME280;47817;52.798;27.544;2023-01-31T00:26:31;1005.8;;;2.4;89.6
61880;BME280;47817;52.798;27.544;2023-01-31T00:31:51;1005.8;;;2.4;89.5
61880;BME280;47817;52.798;27.544;2023-01-31T00:36:08;1005.8;;;2.4;89.6
61880;BME280;47817;52.798;27.544;2023-01-31T00:41:39;1005.7;;;2.4;89.9
61880;BME280;47817;52.798;27.544;2023-01-31T00:46:07;1005.8;;;2.5;90.9
61880;BME280;47817;52.798;27.544;2023-01-31T00:51:27;1005.8;;;2.5;92.3
61880;BME280;47817;52.798;27.544;2023-01-31T00:56:08;1005.8;;;2.4;93.3
61880;BME280;47817;52.798;27.544;2023-01-31T01:01:51;1005.9;;;2.4;94.1
61880;BME280;47817;52.798;27.544;2023-01-31T01:06:07;1006;;;2.3;95.1
61880;BME280;47817;52.798;27.544;2023-01-31T01:11:51;1005.9;;;2.4;95.8
61880;BME280;47817;52.798;27.544;2023-01-31T01:16:53;1006;;;2.4;96.1
61880;BME280;47817;52.798;27.544;2023-01-31T01:21:31;1006;;;2.4;96.5
61880;BME280;47817;52.798;27.544;2023-01-31T01:26:53;1006.1;;;2.5;96.9
61880;BME280;47817;52.798;27.544;2023-01-31T01:31:31;1006.1;;;2.6;97.3
61880;BME280;47817;52.798;27.544;2023-01-31T01:36:39;1006.2;;;2.6;97.5
61880;BME280;47817;52.798;27.544;2023-01-31T01:41:07;1006.2;;;2.6;97.6
61880;BME280;47817;52.798;27.544;2023-01-31T01:46:38;1006.2;;;2.7;97.8
61880;BME280;47817;52.798;27.544;2023-01-31T01:51:19;1006.2;;;2.6;97.7
61880;BME280;47817;52.798;27.544;2023-01-31T01:56:28;1006.2;;;2.6;97.9
61880;BME280;47817;52.798;27.544;2023-01-31T02:01:07;1006.2;;;2.6;98
61880;BME280;47817;52.798;27.544;2023-01-31T02:06:53;1006.2;;;2.6;98.2
61880;BME280;47817;52.798;27.544;2023-01-31T02:11:53;1006.3;;;2.6;98.2
61880;BME280;47817;52.798;27.544;2023-01-31T02:16:41;1006.3;;;2.5;98
61880;BME280;47817;52.798;27.544;2023-01-31T02:22:11;1006.3;;;2.6;98.3
61880;BME280;47817;52.798;27.544;2023-01-31T02:26:23;1006.3;;;2.6;98.5
61880;BME280;47817;52.798;27.544;2023-01-31T02:31:49;1006.3;;;2.6;98.5
61880;BME280;47817;52.798;27.544;2023-01-31T02:36:09;1006.4;;;2.6;98.3
61880;BME280;47817;52.798;27.544;2023-01-31T02:41:42;1006.3;;;2.6;98.1
61880;BME280;47817;52.798;27.544;2023-01-31T02:46:08;1006.4;;;2.6;98.5
61880;BME280;47817;52.798;27.544;2023-01-31T02:51:42;1006.4;;;2.6;98.3
61880;BME280;47817;52.798;27.544;2023-01-31T02:56:18;1006.5;;;2.7;98.8
61880;BME280;47817;52.798;27.544;2023-01-31T03:01:54;1006.5;;;2.7;99
61880;BME280;47817;52.798;27.544;2023-01-31T03:06:48;1006.6;;;2.7;98.9
61880;BME280;47817;52.798;27.544;2023-01-31T03:11:43;1006.6;;;2.6;98.5
61880;BME280;47817;52.798;27.544;2023-01-31T03:16:55;1006.6;;;2.6;98.9
61880;BME280;47817;52.798;27.544;2023-01-31T03:21:17;1006.7;;;2.7;99.2
61880;BME280;47817;52.798;27.544;2023-01-31T03:26:43;1006.6;;;2.7;99
61880;BME280;47817;52.798;27.544;2023-01-31T03:31:07;1006.6;;;2.7;99.3
61880;BME280;47817;52.798;27.544;2023-01-31T03:36:45;1006.7;;;2.7;99
61880;BME280;47817;52.798;27.544;2023-01-31T03:41:08;1006.6;;;2.7;99.4
61880;BME280;47817;52.798;27.544;2023-01-31T03:46:54;1006.6;;;2.7;99.5
61880;BME280;47817;52.798;27.544;2023-01-31T03:51:17;1006.5;;;2.7;99.6
61880;BME280;47817;52.798;27.544;2023-01-31T03:56:41;1006.6;;;2.6;99.1
61880;BME280;47817;52.798;27.544;2023-01-31T04:01:42;1006.7;;;2.6;99.6
61880;BME280;47817;52.798;27.544;2023-01-31T04:06:57;1006.8;;;2.7;99.8
61880;BME280;47817;52.798;27.544;2023-01-31T04:11:08;1006.8;;;2.6;99.5
61880;BME280;47817;52.798;27.544;2023-01-31T04:16:17;1006.9;;;2.7;99.6
61880;BME280;47817;52.798;27.544;2023-01-31T04:21:57;1007;;;2.7;99.5
61880;BME280;47817;52.798;27.544;2023-01-31T04:26:21;1006.9;;;2.7;99.5
61880;BME280;47817;52.798;27.544;2023-01-31T04:31:39;1006.9;;;2.7;99.7
61880;BME280;47817;52.798;27.544;2023-01-31T04:36:53;1006.9;;;2.8;99.8
61880;BME280;47817;52.798;27.544;2023-01-31T04:41:55;1006.9;;;2.8;99.7
61880;BME280;47817;52.798;27.544;2023-01-31T04:46:27;1006.9;;;2.7;99.7
61880;BME280;47817;52.798;27.544;2023-01-31T04:51:55;1007;;;2.8;99.8
61880;BME280;47817;52.798;27.544;2023-01-31T04:56:29;1007;;;2.8;99.8
61880;BME280;47817;52.798;27.544;2023-01-31T05:01:13;1007;;;2.7;99.3
61880;BME280;47817;52.798;27.544;2023-01-31T05:06:31;1007;;;2.6;99
61880;BME280;47817;52.798;27.544;2023-01-31T05:11:07;1007.1;;;2.7;99.3
61880;BME280;47817;52.798;27.544;2023-01-31T05:16:29;1007.1;;;2.7;98.9
61880;BME280;47817;52.798;27.544;2023-01-31T05:21:31;1007.1;;;2.7;99.3
61880;BME280;47817;52.798;27.544;2023-01-31T05:26:19;1007.2;;;2.7;99.5
61880;BME280;47817;52.798;27.544;2023-01-31T05:31:31;1007.3;;;2.7;99.7
61880;BME280;47817;52.798;27.544;2023-01-31T05:36:31;1007.3;;;2.6;99.7
61880;BME280;47817;52.798;27.544;2023-01-31T05:41:17;1007.3;;;2.6;99.7
61880;BME280;47817;52.798;27.544;2023-01-31T05:46:55;1007.4;;;2.6;99.7
61880;BME280;47817;52.798;27.544;2023-01-31T05:51:39;1007.5;;;2.7;99.7
61880;BME280;47817;52.798;27.544;2023-01-31T05:56:19;1007.6;;;2.6;99.6
61880;BME280;47817;52.798;27.544;2023-01-31T06:01:22;1007.7;;;2.7;99.6
61880;BME280;47817;52.798;27.544;2023-01-31T06:06:17;1007.7;;;2.6;99.7
61880;BME280;47817;52.798;27.544;2023-01-31T06:11:29;1007.7;;;2.6;99.4
61880;BME280;47817;52.798;27.544;2023-01-31T06:16:53;1007.8;;;2.7;99.5
61880;BME280;47817;52.798;27.544;2023-01-31T06:21:31;1007.8;;;2.7;99.4
61880;BME280;47817;52.798;27.544;2023-01-31T06:26:53;1007.8;;;2.8;99.6
61880;BME280;47817;52.798;27.544;2023-01-31T06:31:31;1007.9;;;2.8;99.3
61880;BME280;47817;52.798;27.544;2023-01-31T06:36:27;1008;;;2.9;99.8
61880;BME280;47817;52.798;27.544;2023-01-31T06:41:51;1008.1;;;2.8;99.2
61880;BME280;47817;52.798;27.544;2023-01-31T06:46:39;1008;;;2.8;99.2
61880;BME280;47817;52.798;27.544;2023-01-31T06:51:19;1008.1;;;2.8;99.1
61880;BME280;47817;52.798;27.544;2023-01-31T06:56:29;1008.2;;;2.7;99
61880;BME280;47817;52.798;27.544;2023-01-31T07:01:19;1008.2;;;2.7;99.2
61880;BME280;47817;52.798;27.544;2023-01-31T07:06:15;1008.3;;;2.7;99.8
61880;BME280;47817;52.798;27.544;2023-01-31T07:11:51;1008.3;;;2.9;100
61880;BME280;47817;52.798;27.544;2023-01-31T07:16:19;1008.4;;;2.9;99.9
61880;BME280;47817;52.798;27.544;2023-01-31T07:21:53;1008.5;;;3;99.9
61880;BME280;47817;52.798;27.544;2023-01-31T07:26:29;1008.5;;;3;99.7
61880;BME280;47817;52.798;27.544;2023-01-31T07:31:53;1008.5;;;3;99.2
61880;BME280;47817;52.798;27.544;2023-01-31T07:36:33;1008.5;;;3;99.6
61880;BME280;47817;52.798;27.544;2023-01-31T07:41:37;1008.6;;;3.1;99.9
61880;BME280;47817;52.798;27.544;2023-01-31T07:46:29;1008.7;;;3.2;100
61880;BME280;47817;52.798;27.544;2023-01-31T07:51:53;1008.7;;;3.4;99.8
61880;BME280;47817;52.798;27.544;2023-01-31T07:56:08;1008.8;;;3.5;99.4
61880;BME280;47817;52.798;27.544;2023-01-31T08:01:49;1008.8;;;3.4;99
61880;BME280;47817;52.798;27.544;2023-01-31T08:06:52;1008.8;;;3.5;99.4
61880;BME280;47817;52.798;27.544;2023-01-31T08:11:39;1008.9;;;3.5;99
61880;BME280;47817;52.798;27.544;2023-01-31T08:16:39;1009;;;3.5;98.5
61880;BME280;47817;52.798;27.544;2023-01-31T08:21:19;1009.1;;;3.5;98.4
61880;BME280;47817;52.798;27.544;2023-01-31T08:26:40;1009.1;;;3.6;98.8
61880;BME280;47817;52.798;27.544;2023-01-31T08:31:10;1009.2;;;3.6;98.3
61880;BME280;47817;52.798;27.544;2023-01-31T08:36:37;1009.3;;;3.7;98.1
61880;BME280;47817;52.798;27.544;2023-01-31T08:41:07;1009.3;;;3.6;98.1
61880;BME280;47817;52.798;27.544;2023-01-31T08:46:39;1009.4;;;3.7;98.5
61880;BME280;47817;52.798;27.544;2023-01-31T08:51:17;1009.4;;;3.8;98.4
61880;BME280;47817;52.798;27.544;2023-01-31T08:56:53;1009.4;;;3.9;98.2
61880;BME280;47817;52.798;27.544;2023-01-31T09:01:41;1009.4;;;4;98
61880;BME280;47817;52.798;27.544;2023-01-31T09:06:41;1009.4;;;4.1;97.7
61880;BME280;47817;52.798;27.544;2023-01-31T09:11:49;1009.4;;;4.2;97.9
61880;BME280;47817;52.798;27.544;2023-01-31T09:16:19;1009.4;;;4.3;97.4
61880;BME280;47817;52.798;27.544;2023-01-31T09:21:33;1009.5;;;4.4;97.4
61880;BME280;47817;52.798;27.544;2023-01-31T09:26:17;1009.6;;;4.3;96.2
61880;BME280;47817;52.798;27.544;2023-01-31T09:31:41;1009.6;;;4.5;95.6
61880;BME280;47817;52.798;27.544;2023-01-31T09:36:33;1009.6;;;4.7;94.6
61880;BME280;47817;52.798;27.544;2023-01-31T09:41:54;1009.6;;;4.9;94.3
61880;BME280;47817;52.798;27.544;2023-01-31T09:46:32;1009.5;;;5.1;94.2
61880;BME280;47817;52.798;27.544;2023-01-31T09:51:27;1009.6;;;5.1;93.5
61880;BME280;47817;52.798;27.544;2023-01-31T09:56:45;1009.6;;;5.1;93.6
61880;BME280;47817;52.798;27.544;2023-01-31T10:01:52;1009.7;;;5;92.4
61880;BME280;47817;52.798;27.544;2023-01-31T10:06:28;1009.7;;;5;92.8
61880;BME280;47817;52.798;27.544;2023-01-31T10:11:09;1009.6;;;5;91.3
61880;BME280;47817;52.798;27.544;2023-01-31T10:16:55;1009.6;;;5.1;92.2
61880;BME280;47817;52.798;27.544;2023-01-31T10:21:39;1009.7;;;5;90.9
61880;BME280;47817;52.798;27.544;2023-01-31T10:26:41;1009.8;;;4.9;91.3
61880;BME280;47817;52.798;27.544;2023-01-31T10:31:09;1009.9;;;5;91.8
61880;BME280;47817;52.798;27.544;2023-01-31T10:36:51;1009.9;;;5;91.8
61880;BME280;47817;52.798;27.544;2023-01-31T10:41:12;1009.9;;;5.1;91.8
61880;BME280;47817;52.798;27.544;2023-01-31T10:46:39;1010;;;5.1;91.4
61880;BME280;47817;52.798;27.544;2023-01-31T10:51:48;1010.1;;;4.9;91.6
61880;BME280;47817;52.798;27.544;2023-01-31T10:56:53;1010.1;;;5;92.4
61880;BME280;47817;52.798;27.544;2023-01-31T11:01:07;1010.1;;;4.9;92.4
61880;BME280;47817;52.798;27.544;2023-01-31T11:06:15;1010.1;;;4.7;92.1
61880;BME280;47817;52.798;27.544;2023-01-31T11:11:52;1010.1;;;4.7;93.1
61880;BME280;47817;52.798;27.544;2023-01-31T11:16:21;1010.1;;;4.6;93.6
61880;BME280;47817;52.798;27.544;2023-01-31T11:21:41;1010.1;;;4.6;93.2
61880;BME280;47817;52.798;27.544;2023-01-31T11:26:54;1010.1;;;4.6;93
61880;BME280;47817;52.798;27.544;2023-01-31T11:31:51;1010.1;;;4.8;92.8
61880;BME280;47817;52.798;27.544;2023-01-31T11:36:21;1010.2;;;4.9;92.3
61880;BME280;47817;52.798;27.544;2023-01-31T11:41:53;1010.2;;;4.9;91.2
61880;BME280;47817;52.798;27.544;2023-01-31T11:46:31;1010.3;;;4.9;91.6
61880;BME280;47817;52.798;27.544;2023-01-31T11:51:41;1010.3;;;5.1;91.8
61880;BME280;47817;52.798;27.544;2023-01-31T11:56:27;1010.3;;;5;91
61880;BME280;47817;52.798;27.544;2023-01-31T12:01:19;1010.3;;;4.9;90.4
61880;BME280;47817;52.798;27.544;2023-01-31T12:06:07;1010.4;;;4.8;89.5
61880;BME280;47817;52.798;27.544;2023-01-31T12:11:18;1010.4;;;4.7;89.2
61880;BME280;47817;52.798;27.544;2023-01-31T12:16:52;1010.4;;;4.7;90.1
61880;BME280;47817;52.798;27.544;2023-01-31T12:21:53;1010.6;;;4.6;90
61880;BME280;47817;52.798;27.544;2023-01-31T12:26:33;1010.6;;;4.6;90.7
61880;BME280;47817;52.798;27.544;2023-01-31T12:31:32;1010.7;;;4.7;90.2
61880;BME280;47817;52.798;27.544;2023-01-31T12:36:51;1010.7;;;4.7;90.2
61880;BME280;47817;52.798;27.544;2023-01-31T12:41:35;1010.7;;;4.8;90.1
61880;BME280;47817;52.798;27.544;2023-01-31T12:46:08;1010.7;;;4.8;90.1
61880;BME280;47817;52.798;27.544;2023-01-31T12:51:30;1010.8;;;4.8;90.1
61880;BME280;47817;52.798;27.544;2023-01-31T12:56:29;1010.7;;;4.8;91
61880;BME280;47817;52.798;27.544;2023-01-31T13:01:43;1010.8;;;4.7;90.8
61880;BME280;47817;52.798;27.544;2023-01-31T13:06:53;1010.9;;;4.7;90.8
61880;BME280;47817;52.798;27.544;2023-01-31T13:11:08;1010.9;;;4.6;89.7
61880;BME280;47817;52.798;27.544;2023-01-31T13:16:55;1011;;;4.6;89.7
61880;BME280;47817;52.798;27.544;2023-01-31T13:21:20;1010.9;;;4.6;89.4
61880;BME280;47817;52.798;27.544;2023-01-31T13:26:57;1011;;;4.6;90.1
61880;BME280;47817;52.798;27.544;2023-01-31T13:31:27;1011;;;4.7;90.6
61880;BME280;47817;52.798;27.544;2023-01-31T13:36:40;1011.1;;;4.7;90.4
61880;BME280;47817;52.798;27.544;2023-01-31T13:41:19;1011.1;;;4.6;89.4
61880;BME280;47817;52.798;27.544;2023-01-31T13:46:54;1011.1;;;4.5;90.3
61880;BME280;47817;52.798;27.544;2023-01-31T13:51:08;1011.1;;;4.4;89.5
61880;BME280;47817;52.798;27.544;2023-01-31T13:56:52;1011.2;;;4.3;89.1
61880;BME280;47817;52.798;27.544;2023-01-31T14:01:47;1011.2;;;4.3;89.9
61880;BME280;47817;52.798;27.544;2023-01-31T14:06:07;1011.3;;;4.3;89
61880;BME280;47817;52.798;27.544;2023-01-31T14:11:42;1011.3;;;4.2;89.4
61880;BME280;47817;52.798;27.544;2023-01-31T14:16:38;1011.4;;;4.2;90.4
61880;BME280;47817;52.798;27.544;2023-01-31T14:21:42;1011.4;;;4.2;91.7
61880;BME280;47817;52.798;27.544;2023-01-31T14:26:29;1011.4;;;4.2;92.8
61880;BME280;47817;52.798;27.544;2023-01-31T14:31:37;1011.4;;;4.2;93.6
61880;BME280;47817;52.798;27.544;2023-01-31T14:36:17;1011.4;;;4.1;93.9
61880;BME280;47817;52.798;27.544;2023-01-31T14:42:00;1011.5;;;4;92.7
61880;BME280;47817;52.798;27.544;2023-01-31T14:46:32;1011.5;;;4;93.3
61880;BME280;47817;52.798;27.544;2023-01-31T14:52:05;1011.6;;;4;93.3
61880;BME280;47817;52.798;27.544;2023-01-31T14:56:54;1011.6;;;3.9;93.2
61880;BME280;47817;52.798;27.544;2023-01-31T15:01:38;1011.7;;;3.9;92.9
61880;BME280;47817;52.798;27.544;2023-01-31T15:06:37;1011.7;;;3.8;93
61880;BME280;47817;52.798;27.544;2023-01-31T15:11:11;1011.8;;;3.8;93.7
61880;BME280;47817;52.798;27.544;2023-01-31T15:16:43;1011.9;;;3.7;94
61880;BME280;47817;52.798;27.544;2023-01-31T15:21:21;1011.9;;;3.7;93.3
61880;BME280;47817;52.798;27.544;2023-01-31T15:26:31;1011.9;;;3.6;93.2
61880;BME280;47817;52.798;27.544;2023-01-31T15:31:11;1011.9;;;3.6;94.2
61880;BME280;47817;52.798;27.544;2023-01-31T15:36:41;1011.9;;;3.6;94.1
61880;BME280;47817;52.798;27.544;2023-01-31T15:41:34;1011.9;;;3.6;93.9
61880;BME280;47817;52.798;27.544;2023-01-31T15:46:53;1012;;;3.6;93.6
61880;BME280;47817;52.798;27.544;2023-01-31T15:51:41;1012;;;3.6;94
61880;BME280;47817;52.798;27.544;2023-01-31T15:56:41;1012;;;3.6;94.6
61880;BME280;47817;52.798;27.544;2023-01-31T16:01:54;1012.1;;;3.6;94.9
61880;BME280;47817;52.798;27.544;2023-01-31T16:06:21;1012.1;;;3.6;94.2
61880;BME280;47817;52.798;27.544;2023-01-31T16:11:43;1012.2;;;3.6;93.5
61880;BME280;47817;52.798;27.544;2023-01-31T16:16:07;1012.2;;;3.6;93.7
61880;BME280;47817;52.798;27.544;2023-01-31T16:21:43;1012.2;;;3.5;92.8
61880;BME280;47817;52.798;27.544;2023-01-31T16:26:08;1012.2;;;3.5;92.5
61880;BME280;47817;52.798;27.544;2023-01-31T16:31:53;1012.2;;;3.4;91.6
61880;BME280;47817;52.798;27.544;2023-01-31T16:36:30;1012.3;;;3.4;91.3
61880;BME280;47817;52.798;27.544;2023-01-31T16:41:45;1012.3;;;3.4;92.1
61880;BME280;47817;52.798;27.544;2023-01-31T16:46:43;1012.4;;;3.4;92
61880;BME280;47817;52.798;27.544;2023-01-31T16:51:55;1012.4;;;3.3;91.5
61880;BME280;47817;52.798;27.544;2023-01-31T16:56:29;1012.4;;;3.3;91.5
61880;BME280;47817;52.798;27.544;2023-01-31T17:01:20;1012.4;;;3.3;91.4
61880;BME280;47817;52.798;27.544;2023-01-31T17:07:00;1012.5;;;3.3;91.3
61880;BME280;47817;52.798;27.544;2023-01-31T17:11:29;1012.6;;;3.3;91.2
61880;BME280;47817;52.798;27.544;2023-01-31T17:16:41;1012.6;;;3.3;90.7
61880;BME280;47817;52.798;27.544;2023-01-31T17:21:42;1012.7;;;3.3;91.2
61880;BME280;47817;52.798;27.544;2023-01-31T17:26:53;1012.7;;;3.3;90.4
61880;BME280;47817;52.798;27.544;2023-01-31T17:31:09;1012.7;;;3.2;90.9
61880;BME280;47817;52.798;27.544;2023-01-31T17:36:55;1012.7;;;3.3;92
61880;BME280;47817;52.798;27.544;2023-01-31T17:41:31;1012.8;;;3.3;91.5
61880;BME280;47817;52.798;27.544;2023-01-31T17:46:08;1012.8;;;3.2;90.6
61880;BME280;47817;52.798;27.544;2023-01-31T17:51:31;1012.7;;;3.2;91.3
61880;BME280;47817;52.798;27.544;2023-01-31T17:56:07;1012.8;;;3.1;89.8
61880;BME280;47817;52.798;27.544;2023-01-31T18:01:31;1012.7;;;3.1;90.2
61880;BME280;47817;52.798;27.544;2023-01-31T18:06:19;1012.7;;;3.1;90.2
61880;BME280;47817;52.798;27.544;2023-01-31T18:11:33;1012.7;;;3.1;90
61880;BME280;47817;52.798;27.544;2023-01-31T18:16:56;1012.8;;;3.1;90.9
61880;BME280;47817;52.798;27.544;2023-01-31T18:21:55;1012.7;;;3;91.1
61880;BME280;47817;52.798;27.544;2023-01-31T18:26:31;1012.8;;;3;91.2
61880;BME280;47817;52.798;27.544;2023-01-31T18:31:53;1012.7;;;3;90.9
61880;BME280;47817;52.798;27.544;2023-01-31T18:36:19;1012.7;;;2.9;89.5
61880;BME280;47817;52.798;27.544;2023-01-31T18:41:41;1012.7;;;2.9;90
61880;BME280;47817;52.798;27.544;2023-01-31T18:46:17;1012.8;;;2.9;90.1
61880;BME280;47817;52.798;27.544;2023-01-31T18:51:29;1012.8;;;3;91.4
61880;BME280;47817;52.798;27.544;2023-01-31T18:56:31;1012.8;;;3;91.7
61880;BME280;47817;52.798;27.544;2023-01-31T19:01:27;1012.8;;;3;90.8
61880;BME280;47817;52.798;27.544;2023-01-31T19:06:33;1012.8;;;3;90.3
61880;BME280;47817;52.798;27.544;2023-01-31T19:11:53;1012.8;;;3.1;91.4
61880;BME280;47817;52.798;27.544;2023-01-31T19:16:53;1012.8;;;3.2;92.3
61880;BME280;47817;52.798;27.544;2023-01-31T19:21:28;1012.8;;;3.2;91.1
61880;BME280;47817;52.798;27.544;2023-01-31T19:26:53;1012.8;;;3.1;91.5
61880;BME280;47817;52.798;27.544;2023-01-31T19:31:39;1012.8;;;3.1;90.1
61880;BME280;47817;52.798;27.544;2023-01-31T19:36:07;1012.7;;;3;90
61880;BME280;47817;52.798;27.544;2023-01-31T19:41:29;1012.7;;;3;90
61880;BME280;47817;52.798;27.544;2023-01-31T19:46:07;1012.7;;;3;90.6
61880;BME280;47817;52.798;27.544;2023-01-31T19:51:31;1012.7;;;2.9;89
61880;BME280;47817;52.798;27.544;2023-01-31T19:56:53;1012.7;;;2.9;89.8
61880;BME280;47817;52.798;27.544;2023-01-31T20:01:19;1012.7;;;2.8;90
61880;BME280;47817;52.798;27.544;2023-01-31T20:06:53;1012.7;;;2.7;90.7
61880;BME280;47817;52.798;27.544;2023-01-31T20:11:31;1012.6;;;2.8;91.3
61880;BME280;47817;52.798;27.544;2023-01-31T20:16:55;1012.6;;;2.8;91.8
61880;BME280;47817;52.798;27.544;2023-01-31T20:31:08;1012.5;;;2.7;91
61880;BME280;47817;52.798;27.544;2023-01-31T20:36:57;1012.5;;;2.7;90.4
61880;BME280;47817;52.798;27.544;2023-01-31T20:41:17;1012.5;;;2.6;90.9
61880;BME280;47817;52.798;27.544;2023-01-31T20:46:57;1012.5;;;2.6;91.9
61880;BME280;47817;52.798;27.544;2023-01-31T20:51:57;1012.5;;;2.7;91.4
61880;BME280;47817;52.798;27.544;2023-01-31T20:56:41;1012.4;;;2.7;90.5
61880;BME280;47817;52.798;27.544;2023-01-31T21:01:39;1012.4;;;2.8;89.7
61880;BME280;47817;52.798;27.544;2023-01-31T21:06:31;1012.4;;;2.8;90.1
61880;BME280;47817;52.798;27.544;2023-01-31T21:11:31;1012.4;;;2.9;89.8
61880;BME280;47817;52.798;27.544;2023-01-31T21:16:31;1012.4;;;2.9;89.9
61880;BME280;47817;52.798;27.544;2023-01-31T21:21:41;1012.3;;;3;89.5
61880;BME280;47817;52.798;27.544;2023-01-31T21:26:19;1012.3;;;3.1;89.2
61880;BME280;47817;52.798;27.544;2023-01-31T21:31:27;1012.3;;;3.1;88
61880;BME280;47817;52.798;27.544;2023-01-31T21:36:31;1012.3;;;3.1;87.9
61880;BME280;47817;52.798;27.544;2023-01-31T21:41:55;1012.2;;;3.1;87.7
61880;BME280;47817;52.798;27.544;2023-01-31T21:46:43;1012.2;;;3;86.6
61880;BME280;47817;52.798;27.544;2023-01-31T21:51:29;1012.1;;;3;85.9
61880;BME280;47817;52.798;27.544;2023-01-31T21:56:55;1012.1;;;2.9;85.2
61880;BME280;47817;52.798;27.544;2023-01-31T22:01:08;1012.1;;;2.9;84.7
61880;BME280;47817;52.798;27.544;2023-01-31T22:06:41;1012;;;2.9;84.7
61880;BME280;47817;52.798;27.544;2023-01-31T22:11:08;1012;;;3;84.5
61880;BME280;47817;52.798;27.544;2023-01-31T22:16:43;1011.9;;;2.9;84
61880;BME280;47817;52.798;27.544;2023-01-31T22:21:20;1011.8;;;2.9;83.7
61880;BME280;47817;52.798;27.544;2023-01-31T22:26:40;1011.8;;;3;83.3
61880;BME280;47817;52.798;27.544;2023-01-31T22:31:29;1011.8;;;3;83.3
61880;BME280;47817;52.798;27.544;2023-01-31T22:36:51;1011.7;;;2.9;82.6
61880;BME280;47817;52.798;27.544;2023-01-31T22:41:37;1011.7;;;2.9;82.7
61880;BME280;47817;52.798;27.544;2023-01-31T22:46:41;1011.7;;;2.9;82.4
61880;BME280;47817;52.798;27.544;2023-01-31T22:51:55;1011.7;;;2.9;82.1
61880;BME280;47817;52.798;27.544;2023-01-31T22:56:09;1011.6;;;2.9;82
61880;BME280;47817;52.798;27.544;2023-01-31T23:01:41;1011.6;;;2.8;81.8
61880;BME280;47817;52.798;27.544;2023-01-31T23:06:07;1011.5;;;2.8;81.6
61880;BME280;47817;52.798;27.544;2023-01-31T23:11:43;1011.5;;;2.8;81.5
61880;BME280;47817;52.798;27.544;2023-01-31T23:16:18;1011.4;;;2.8;81.4
61880;BME280;47817;52.798;27.544;2023-01-31T23:21:55;1011.4;;;2.8;81.4
61880;BME280;47817;52.798;27.544;2023-01-31T23:26:31;1011.4;;;2.7;81.3
61880;BME280;47817;52.798;27.544;2023-01-31T23:31:25;1011.3;;;2.7;81.3
61880;BME280;47817;52.798;27.544;2023-01-31T23:36:39;1011.3;;;2.7;81.4
61880;BME280;47817;52.798;27.544;2023-01-31T23:41:53;1011.2;;;2.8;81.3
61880;BME280;47817;52.798;27.544;2023-01-31T23:46:29;1011.2;;;2.8;81
61880;BME280;47817;52.798;27.544;2023-01-31T23:51:41;1011.1;;;2.7;81.1
61880;BME280;47817;52.798;27.544;2023-01-31T23:56:55;1011;;;2.7;81.1
